sensor_id;sensor_type;location;lat;lon;timestamp;temperature;humidity
7167;DHT22;3625;51.762;14.320;2022-12-24T00:04:47;8.10;99.90
7167;DHT22;3625;51.762;14.320;2022-12-24T00:07:22;8.10;99.90
7167;DHT22;3625;51.762;14.320;2022-12-24T00:14:52;8.00;99.90
7167;DHT22;3625;51.762;14.320;2022-12-24T00:24:49;8.10;99.90
7167;DHT22;3625;51.762;14.320;2022-12-24T00:32:22;8.10;99.90
7167;DHT22;3625;51.762;14.320;2022-12-24T00:34:52;8.10;99.90
7167;DHT22;3625;51.762;14.320;2022-12-24T00:37:27;8.10;99.90
7167;DHT22;3625;51.762;14.320;2022-12-24T00:39:55;8.00;99.90
7167;DHT22;3625;51.762;14.320;2022-12-24T00:42:25;8.00;99.90
7167;DHT22;3625;51.762;14.320;2022-12-24T00:44:54;8.00;99.90
7167;DHT22;3625;51.762;14.320;2022-12-24T00:47:24;8.00;99.90
7167;DHT22;3625;51.762;14.320;2022-12-24T00:54:50;8.00;99.90
7167;DHT22;3625;51.762;14.320;2022-12-24T00:57:20;8.20;99.90
7167;DHT22;3625;51.762;14.320;2022-12-24T00:59:50;8.00;99.90
7167;DHT22;3625;51.762;14.320;2022-12-24T01:02:19;8.00;99.90
7167;DHT22;3625;51.762;14.320;2022-12-24T01:04:49;8.00;99.90
7167;DHT22;3625;51.762;14.320;2022-12-24T01:07:36;8.10;99.90
7167;DHT22;3625;51.762;14.320;2022-12-24T01:10:07;6.80;99.90
7167;DHT22;3625;51.762;14.320;2022-12-24T01:15:06;8.00;99.90
7167;DHT22;3625;51.762;14.320;2022-12-24T01:17:38;8.10;99.90
7167;DHT22;3625;51.762;14.320;2022-12-24T01:20:13;8.00;99.90
7167;DHT22;3625;51.762;14.320;2022-12-24T01:22:43;8.00;99.90
7167;DHT22;3625;51.762;14.320;2022-12-24T01:25:12;8.00;99.90
7167;DHT22;3625;51.762;14.320;2022-12-24T01:30:12;8.00;99.90
7167;DHT22;3625;51.762;14.320;2022-12-24T01:32:42;8.10;99.90
7167;DHT22;3625;51.762;14.320;2022-12-24T01:35:14;8.10;99.90
7167;DHT22;3625;51.762;14.320;2022-12-24T01:40:16;8.10;99.90
7167;DHT22;3625;51.762;14.320;2022-12-24T01:43:04;8.10;99.90
7167;DHT22;3625;51.762;14.320;2022-12-24T01:45:54;8.30;99.90
7167;DHT22;3625;51.762;14.320;2022-12-24T01:48:33;8.10;99.90
7167;DHT22;3625;51.762;14.320;2022-12-24T01:51:16;8.10;99.90
7167;DHT22;3625;51.762;14.320;2022-12-24T01:53:55;8.10;99.90
7167;DHT22;3625;51.762;14.320;2022-12-24T01:56:27;8.10;99.90
7167;DHT22;3625;51.762;14.320;2022-12-24T01:59:03;8.10;99.90
7167;DHT22;3625;51.762;14.320;2022-12-24T02:01:36;8.20;99.90
7167;DHT22;3625;51.762;14.320;2022-12-24T02:04:12;8.10;99.90
7167;DHT22;3625;51.762;14.320;2022-12-24T02:06:51;8.10;99.90
7167;DHT22;3625;51.762;14.320;2022-12-24T02:16:53;8.20;99.90
7167;DHT22;3625;51.762;14.320;2022-12-24T02:23:06;8.20;99.90
7167;DHT22;3625;51.762;14.320;2022-12-24T02:26:06;8.20;99.90
7167;DHT22;3625;51.762;14.320;2022-12-24T02:29:08;6.50;99.90
7167;DHT22;3625;51.762;14.320;2022-12-24T02:31:51;8.30;99.90
7167;DHT22;3625;51.762;14.320;2022-12-24T02:34:34;8.20;99.90
7167;DHT22;3625;51.762;14.320;2022-12-24T02:37:11;8.20;99.90
7167;DHT22;3625;51.762;14.320;2022-12-24T02:39:50;8.20;99.90
7167;DHT22;3625;51.762;14.320;2022-12-24T02:42:28;8.20;99.90
7167;DHT22;3625;51.762;14.320;2022-12-24T02:45:04;8.20;99.90
7167;DHT22;3625;51.762;14.320;2022-12-24T02:47:37;8.20;99.90
7167;DHT22;3625;51.762;14.320;2022-12-24T02:50:11;8.20;99.90
7167;DHT22;3625;51.762;14.320;2022-12-24T02:52:45;8.20;99.90
7167;DHT22;3625;51.762;14.320;2022-12-24T02:55:19;8.20;99.90
7167;DHT22;3625;51.762;14.320;2022-12-24T02:58:00;8.20;99.90
7167;DHT22;3625;51.762;14.320;2022-12-24T03:00:52;8.20;99.90
7167;DHT22;3625;51.762;14.320;2022-12-24T03:03:58;8.20;99.90
7167;DHT22;3625;51.762;14.320;2022-12-24T03:06:42;8.20;99.90
7167;DHT22;3625;51.762;14.320;2022-12-24T03:09:23;8.30;99.90
7167;DHT22;3625;51.762;14.320;2022-12-24T03:11:58;8.30;99.90
7167;DHT22;3625;51.762;14.320;2022-12-24T03:14:33;8.30;99.90
7167;DHT22;3625;51.762;14.320;2022-12-24T03:17:03;8.30;99.90
7167;DHT22;3625;51.762;14.320;2022-12-24T03:19:33;8.30;99.90
7167;DHT22;3625;51.762;14.320;2022-12-24T03:22:09;8.30;99.90
7167;DHT22;3625;51.762;14.320;2022-12-24T03:24:39;8.40;99.90
7167;DHT22;3625;51.762;14.320;2022-12-24T03:27:09;8.30;99.90
7167;DHT22;3625;51.762;14.320;2022-12-24T03:29:40;8.20;99.90
7167;DHT22;3625;51.762;14.320;2022-12-24T03:34:39;8.20;99.90
7167;DHT22;3625;51.762;14.320;2022-12-24T03:39:36;8.20;99.90
7167;DHT22;3625;51.762;14.320;2022-12-24T03:42:05;8.20;99.90
7167;DHT22;3625;51.762;14.320;2022-12-24T03:47:03;8.20;99.90
7167;DHT22;3625;51.762;14.320;2022-12-24T03:52:03;8.20;99.90
7167;DHT22;3625;51.762;14.320;2022-12-24T03:54:32;8.20;99.90
7167;DHT22;3625;51.762;14.320;2022-12-24T03:57:00;8.20;99.90
7167;DHT22;3625;51.762;14.320;2022-12-24T04:01:58;8.20;99.90
7167;DHT22;3625;51.762;14.320;2022-12-24T04:06:58;8.20;99.90
7167;DHT22;3625;51.762;14.320;2022-12-24T04:09:28;8.10;99.90
7167;DHT22;3625;51.762;14.320;2022-12-24T04:11:56;8.10;99.90
7167;DHT22;3625;51.762;14.320;2022-12-24T04:19:25;8.10;99.90
7167;DHT22;3625;51.762;14.320;2022-12-24T04:21:54;8.10;99.90
7167;DHT22;3625;51.762;14.320;2022-12-24T04:26:53;8.00;99.90
7167;DHT22;3625;51.762;14.320;2022-12-24T04:36:48;8.00;99.90
7167;DHT22;3625;51.762;14.320;2022-12-24T04:41:46;7.90;99.90
7167;DHT22;3625;51.762;14.320;2022-12-24T04:44:16;7.90;99.90
7167;DHT22;3625;51.762;14.320;2022-12-24T04:46:45;7.90;99.90
7167;DHT22;3625;51.762;14.320;2022-12-24T04:51:42;7.90;99.90
7167;DHT22;3625;51.762;14.320;2022-12-24T04:56:39;7.80;99.90
7167;DHT22;3625;51.762;14.320;2022-12-24T05:01:38;7.80;99.90
7167;DHT22;3625;51.762;14.320;2022-12-24T05:11:36;7.80;99.90
7167;DHT22;3625;51.762;14.320;2022-12-24T05:14:04;7.00;99.90
7167;DHT22;3625;51.762;14.320;2022-12-24T05:16:33;7.80;99.90
7167;DHT22;3625;51.762;14.320;2022-12-24T05:19:03;7.70;99.90
7167;DHT22;3625;51.762;14.320;2022-12-24T05:24:01;7.70;99.90
7167;DHT22;3625;51.762;14.320;2022-12-24T05:26:48;7.70;99.90
7167;DHT22;3625;51.762;14.320;2022-12-24T05:29:20;7.60;99.90
7167;DHT22;3625;51.762;14.320;2022-12-24T05:31:49;7.60;99.90
7167;DHT22;3625;51.762;14.320;2022-12-24T05:34:21;7.50;99.90
7167;DHT22;3625;51.762;14.320;2022-12-24T05:36:49;7.50;99.90
7167;DHT22;3625;51.762;14.320;2022-12-24T05:46:47;7.40;99.90
7167;DHT22;3625;51.762;14.320;2022-12-24T05:49:16;7.40;99.90
7167;DHT22;3625;51.762;14.320;2022-12-24T05:51:46;7.50;99.90
7167;DHT22;3625;51.762;14.320;2022-12-24T05:54:28;7.50;99.90
7167;DHT22;3625;51.762;14.320;2022-12-24T05:57:03;7.50;99.90
7167;DHT22;3625;51.762;14.320;2022-12-24T06:07:14;7.40;99.90
7167;DHT22;3625;51.762;14.320;2022-12-24T06:09:42;7.40;99.90
7167;DHT22;3625;51.762;14.320;2022-12-24T06:22:06;7.30;99.90
7167;DHT22;3625;51.762;14.320;2022-12-24T06:24:36;7.90;99.90
7167;DHT22;3625;51.762;14.320;2022-12-24T06:32:07;7.20;99.90
7167;DHT22;3625;51.762;14.320;2022-12-24T06:34:39;7.20;99.90
7167;DHT22;3625;51.762;14.320;2022-12-24T06:37:07;7.20;99.90
7167;DHT22;3625;51.762;14.320;2022-12-24T06:39:45;7.10;99.90
7167;DHT22;3625;51.762;14.320;2022-12-24T06:44:43;7.10;99.90
7167;DHT22;3625;51.762;14.320;2022-12-24T06:47:12;7.10;99.90
7167;DHT22;3625;51.762;14.320;2022-12-24T06:52:09;7.10;99.90
7167;DHT22;3625;51.762;14.320;2022-12-24T06:54:37;7.10;99.90
7167;DHT22;3625;51.762;14.320;2022-12-24T06:57:07;7.10;99.90
7167;DHT22;3625;51.762;14.320;2022-12-24T06:59:36;7.10;99.90
7167;DHT22;3625;51.762;14.320;2022-12-24T07:02:05;7.00;99.90
7167;DHT22;3625;51.762;14.320;2022-12-24T07:04:34;7.00;99.90
7167;DHT22;3625;51.762;14.320;2022-12-24T07:12:00;7.00;99.90
7167;DHT22;3625;51.762;14.320;2022-12-24T07:14:31;7.00;99.90
7167;DHT22;3625;51.762;14.320;2022-12-24T07:19:28;7.00;99.90
7167;DHT22;3625;51.762;14.320;2022-12-24T07:22:01;7.10;99.90
7167;DHT22;3625;51.762;14.320;2022-12-24T07:29:37;7.10;99.90
7167;DHT22;3625;51.762;14.320;2022-12-24T07:32:07;7.20;99.90
7167;DHT22;3625;51.762;14.320;2022-12-24T07:34:36;7.20;99.90
7167;DHT22;3625;51.762;14.320;2022-12-24T07:42:03;7.30;99.90
7167;DHT22;3625;51.762;14.320;2022-12-24T07:44:34;7.30;99.90
7167;DHT22;3625;51.762;14.320;2022-12-24T07:47:04;7.30;99.90
7167;DHT22;3625;51.762;14.320;2022-12-24T07:49:35;7.30;99.90
7167;DHT22;3625;51.762;14.320;2022-12-24T07:54:33;7.30;99.90
7167;DHT22;3625;51.762;14.320;2022-12-24T08:02:01;7.50;99.90
7167;DHT22;3625;51.762;14.320;2022-12-24T08:09:34;7.60;99.90
7167;DHT22;3625;51.762;14.320;2022-12-24T08:17:21;8.20;99.90
7167;DHT22;3625;51.762;14.320;2022-12-24T08:32:28;7.90;99.90
7167;DHT22;3625;51.762;14.320;2022-12-24T08:34:57;7.80;99.90
7167;DHT22;3625;51.762;14.320;2022-12-24T08:39:55;7.80;99.90
7167;DHT22;3625;51.762;14.320;2022-12-24T08:49:52;8.20;99.90
7167;DHT22;3625;51.762;14.320;2022-12-24T08:52:20;8.20;99.90
7167;DHT22;3625;51.762;14.320;2022-12-24T08:54:52;10.20;99.90
7167;DHT22;3625;51.762;14.320;2022-12-24T08:59:49;8.50;99.90
7167;DHT22;3625;51.762;14.320;2022-12-24T09:07:18;8.60;99.90
7167;DHT22;3625;51.762;14.320;2022-12-24T09:22:22;9.00;99.90
7167;DHT22;3625;51.762;14.320;2022-12-24T09:24:52;9.10;99.90
7167;DHT22;3625;51.762;14.320;2022-12-24T09:39:48;9.40;99.90
7167;DHT22;3625;51.762;14.320;2022-12-24T09:42:33;9.40;99.90
7167;DHT22;3625;51.762;14.320;2022-12-24T09:45:15;9.30;99.90
7167;DHT22;3625;51.762;14.320;2022-12-24T09:47:52;9.40;99.90
7167;DHT22;3625;51.762;14.320;2022-12-24T09:50:30;9.40;99.90
7167;DHT22;3625;51.762;14.320;2022-12-24T09:53:11;9.40;99.90
7167;DHT22;3625;51.762;14.320;2022-12-24T09:55:48;9.80;99.90
7167;DHT22;3625;51.762;14.320;2022-12-24T09:58:24;9.80;99.90
7167;DHT22;3625;51.762;14.320;2022-12-24T10:06:05;9.90;99.90
7167;DHT22;3625;51.762;14.320;2022-12-24T10:08:47;10.10;99.90
7167;DHT22;3625;51.762;14.320;2022-12-24T10:11:36;10.10;99.90
7167;DHT22;3625;51.762;14.320;2022-12-24T10:14:22;10.40;99.90
7167;DHT22;3625;51.762;14.320;2022-12-24T10:17:12;10.40;99.90
7167;DHT22;3625;51.762;14.320;2022-12-24T10:20:14;10.30;99.90
7167;DHT22;3625;51.762;14.320;2022-12-24T10:22:59;10.30;99.90
7167;DHT22;3625;51.762;14.320;2022-12-24T10:25:39;10.20;99.90
7167;DHT22;3625;51.762;14.320;2022-12-24T10:28:18;10.30;99.90
7167;DHT22;3625;51.762;14.320;2022-12-24T10:30:52;10.20;99.90
7167;DHT22;3625;51.762;14.320;2022-12-24T10:33:30;10.20;99.90
7167;DHT22;3625;51.762;14.320;2022-12-24T10:36:02;10.30;99.90
7167;DHT22;3625;51.762;14.320;2022-12-24T10:38:38;10.40;99.90
7167;DHT22;3625;51.762;14.320;2022-12-24T10:41:07;10.40;99.90
7167;DHT22;3625;51.762;14.320;2022-12-24T10:43:38;10.40;99.90
7167;DHT22;3625;51.762;14.320;2022-12-24T10:46:16;10.20;99.90
7167;DHT22;3625;51.762;14.320;2022-12-24T10:48:51;10.10;99.90
7167;DHT22;3625;51.762;14.320;2022-12-24T10:51:28;10.30;99.90
7167;DHT22;3625;51.762;14.320;2022-12-24T10:54:05;10.30;99.90
7167;DHT22;3625;51.762;14.320;2022-12-24T10:56:44;10.50;99.90
7167;DHT22;3625;51.762;14.320;2022-12-24T10:59:26;10.70;99.90
7167;DHT22;3625;51.762;14.320;2022-12-24T11:01:58;10.70;99.90
7167;DHT22;3625;51.762;14.320;2022-12-24T11:04:29;10.40;99.90
7167;DHT22;3625;51.762;14.320;2022-12-24T11:19:00;10.40;99.90
7167;DHT22;3625;51.762;14.320;2022-12-24T11:21:33;10.10;99.90
7167;DHT22;3625;51.762;14.320;2022-12-24T11:24:12;10.10;99.90
7167;DHT22;3625;51.762;14.320;2022-12-24T11:26:51;10.10;99.90
7167;DHT22;3625;51.762;14.320;2022-12-24T11:29:23;10.10;99.90
7167;DHT22;3625;51.762;14.320;2022-12-24T11:32:15;10.10;99.90
7167;DHT22;3625;51.762;14.320;2022-12-24T11:34:47;10.10;99.90
7167;DHT22;3625;51.762;14.320;2022-12-24T11:37:18;10.30;99.90
7167;DHT22;3625;51.762;14.320;2022-12-24T11:39:51;10.40;99.90
7167;DHT22;3625;51.762;14.320;2022-12-24T11:42:25;10.30;99.90
7167;DHT22;3625;51.762;14.320;2022-12-24T11:45:00;10.20;99.90
7167;DHT22;3625;51.762;14.320;2022-12-24T11:47:33;10.00;99.90
7167;DHT22;3625;51.762;14.320;2022-12-24T11:50:26;9.90;99.90
7167;DHT22;3625;51.762;14.320;2022-12-24T11:53:02;9.70;99.90
7167;DHT22;3625;51.762;14.320;2022-12-24T11:55:40;9.50;99.90
7167;DHT22;3625;51.762;14.320;2022-12-24T11:58:18;9.40;99.90
7167;DHT22;3625;51.762;14.320;2022-12-24T12:01:11;9.40;99.90
7167;DHT22;3625;51.762;14.320;2022-12-24T12:03:47;9.40;99.90
7167;DHT22;3625;51.762;14.320;2022-12-24T12:06:30;9.40;99.90
7167;DHT22;3625;51.762;14.320;2022-12-24T12:09:12;9.30;99.90
7167;DHT22;3625;51.762;14.320;2022-12-24T12:11:47;9.40;99.90
7167;DHT22;3625;51.762;14.320;2022-12-24T12:14:21;9.50;99.90
7167;DHT22;3625;51.762;14.320;2022-12-24T12:16:59;9.40;99.90
7167;DHT22;3625;51.762;14.320;2022-12-24T12:19:37;10.00;99.90
7167;DHT22;3625;51.762;14.320;2022-12-24T12:22:22;10.10;99.90
7167;DHT22;3625;51.762;14.320;2022-12-24T12:24:57;10.10;99.90
7167;DHT22;3625;51.762;14.320;2022-12-24T12:27:32;9.80;99.90
7167;DHT22;3625;51.762;14.320;2022-12-24T12:30:13;9.80;99.90
7167;DHT22;3625;51.762;14.320;2022-12-24T12:32:51;9.70;99.90
7167;DHT22;3625;51.762;14.320;2022-12-24T12:35:30;9.60;99.90
7167;DHT22;3625;51.762;14.320;2022-12-24T12:38:05;9.70;99.90
7167;DHT22;3625;51.762;14.320;2022-12-24T12:41:03;9.80;99.90
7167;DHT22;3625;51.762;14.320;2022-12-24T12:47:27;10.20;99.90
7167;DHT22;3625;51.762;14.320;2022-12-24T12:50:13;10.20;99.90
7167;DHT22;3625;51.762;14.320;2022-12-24T12:53:22;10.40;99.90
7167;DHT22;3625;51.762;14.320;2022-12-24T12:56:07;10.50;99.90
7167;DHT22;3625;51.762;14.320;2022-12-24T12:58:47;10.60;99.90
7167;DHT22;3625;51.762;14.320;2022-12-24T13:01:23;10.60;99.90
7167;DHT22;3625;51.762;14.320;2022-12-24T13:04:33;10.60;99.90
7167;DHT22;3625;51.762;14.320;2022-12-24T13:08:02;10.60;99.90
7167;DHT22;3625;51.762;14.320;2022-12-24T13:10:55;10.60;99.90
7167;DHT22;3625;51.762;14.320;2022-12-24T13:20:24;10.60;99.90
7167;DHT22;3625;51.762;14.320;2022-12-24T13:22:57;10.60;99.90
7167;DHT22;3625;51.762;14.320;2022-12-24T13:25:37;10.60;99.90
7167;DHT22;3625;51.762;14.320;2022-12-24T13:28:33;10.60;99.90
7167;DHT22;3625;51.762;14.320;2022-12-24T13:31:22;10.50;99.90
7167;DHT22;3625;51.762;14.320;2022-12-24T13:33:59;10.50;99.90
7167;DHT22;3625;51.762;14.320;2022-12-24T13:37:00;10.40;99.90
7167;DHT22;3625;51.762;14.320;2022-12-24T13:40:13;10.40;99.90
7167;DHT22;3625;51.762;14.320;2022-12-24T13:43:05;10.40;99.90
7167;DHT22;3625;51.762;14.320;2022-12-24T13:45:44;10.30;99.90
7167;DHT22;3625;51.762;14.320;2022-12-24T13:48:31;10.20;99.90
7167;DHT22;3625;51.762;14.320;2022-12-24T13:51:17;10.20;99.90
7167;DHT22;3625;51.762;14.320;2022-12-24T13:53:56;10.30;99.90
7167;DHT22;3625;51.762;14.320;2022-12-24T13:56:28;11.30;99.90
7167;DHT22;3625;51.762;14.320;2022-12-24T13:59:16;10.30;99.90
7167;DHT22;3625;51.762;14.320;2022-12-24T14:01:59;10.30;99.90
7167;DHT22;3625;51.762;14.320;2022-12-24T14:04:31;10.40;99.90
7167;DHT22;3625;51.762;14.320;2022-12-24T14:07:04;10.40;99.90
7167;DHT22;3625;51.762;14.320;2022-12-24T14:09:33;10.30;99.90
7167;DHT22;3625;51.762;14.320;2022-12-24T14:12:44;10.20;99.90
7167;DHT22;3625;51.762;14.320;2022-12-24T14:18:36;10.10;99.90
7167;DHT22;3625;51.762;14.320;2022-12-24T14:21:12;10.10;99.90
7167;DHT22;3625;51.762;14.320;2022-12-24T14:23:50;10.10;99.90
7167;DHT22;3625;51.762;14.320;2022-12-24T14:26:24;10.00;99.90
7167;DHT22;3625;51.762;14.320;2022-12-24T14:28:58;10.00;99.90
7167;DHT22;3625;51.762;14.320;2022-12-24T14:31:34;10.00;99.90
7167;DHT22;3625;51.762;14.320;2022-12-24T14:34:05;10.00;99.90
7167;DHT22;3625;51.762;14.320;2022-12-24T14:36:35;9.90;99.90
7167;DHT22;3625;51.762;14.320;2022-12-24T14:39:07;9.90;99.90
7167;DHT22;3625;51.762;14.320;2022-12-24T14:41:46;9.80;99.90
7167;DHT22;3625;51.762;14.320;2022-12-24T14:44:26;9.80;99.90
7167;DHT22;3625;51.762;14.320;2022-12-24T14:47:20;9.70;99.90
7167;DHT22;3625;51.762;14.320;2022-12-24T14:50:23;9.70;99.90
7167;DHT22;3625;51.762;14.320;2022-12-24T14:53:12;9.70;99.90
7167;DHT22;3625;51.762;14.320;2022-12-24T14:58:26;9.70;99.90
7167;DHT22;3625;51.762;14.320;2022-12-24T15:00:57;9.60;99.90
7167;DHT22;3625;51.762;14.320;2022-12-24T15:03:30;9.60;99.90
7167;DHT22;3625;51.762;14.320;2022-12-24T15:06:02;9.30;99.90
7167;DHT22;3625;51.762;14.320;2022-12-24T15:08:37;9.30;99.90
7167;DHT22;3625;51.762;14.320;2022-12-24T15:11:12;9.10;99.90
7167;DHT22;3625;51.762;14.320;2022-12-24T15:13:46;8.90;99.90
7167;DHT22;3625;51.762;14.320;2022-12-24T15:16:22;8.20;99.90
7167;DHT22;3625;51.762;14.320;2022-12-24T15:18:58;9.00;99.90
7167;DHT22;3625;51.762;14.320;2022-12-24T15:21:31;9.00;99.90
7167;DHT22;3625;51.762;14.320;2022-12-24T15:24:04;9.10;99.90
7167;DHT22;3625;51.762;14.320;2022-12-24T15:26:33;9.20;99.90
7167;DHT22;3625;51.762;14.320;2022-12-24T15:29:25;9.30;99.90
7167;DHT22;3625;51.762;14.320;2022-12-24T15:31:56;9.20;99.90
7167;DHT22;3625;51.762;14.320;2022-12-24T15:34:34;9.20;99.90
7167;DHT22;3625;51.762;14.320;2022-12-24T15:37:10;9.20;99.90
7167;DHT22;3625;51.762;14.320;2022-12-24T15:39:41;9.20;99.90
7167;DHT22;3625;51.762;14.320;2022-12-24T15:42:16;9.20;99.90
7167;DHT22;3625;51.762;14.320;2022-12-24T15:44:57;9.20;99.90
7167;DHT22;3625;51.762;14.320;2022-12-24T15:47:29;9.30;99.90
7167;DHT22;3625;51.762;14.320;2022-12-24T15:50:14;9.20;99.90
7167;DHT22;3625;51.762;14.320;2022-12-24T15:52:50;9.20;99.90
7167;DHT22;3625;51.762;14.320;2022-12-24T15:55:44;9.20;99.90
7167;DHT22;3625;51.762;14.320;2022-12-24T15:58:16;9.20;99.90
7167;DHT22;3625;51.762;14.320;2022-12-24T16:01:00;9.10;99.90
7167;DHT22;3625;51.762;14.320;2022-12-24T16:03:32;9.10;99.90
7167;DHT22;3625;51.762;14.320;2022-12-24T16:06:04;9.00;99.90
7167;DHT22;3625;51.762;14.320;2022-12-24T16:08:34;9.00;99.90
7167;DHT22;3625;51.762;14.320;2022-12-24T16:11:15;8.90;99.90
7167;DHT22;3625;51.762;14.320;2022-12-24T16:14:03;8.90;99.90
7167;DHT22;3625;51.762;14.320;2022-12-24T16:16:40;8.80;99.90
7167;DHT22;3625;51.762;14.320;2022-12-24T16:19:18;8.70;99.90
7167;DHT22;3625;51.762;14.320;2022-12-24T16:21:53;8.60;99.90
7167;DHT22;3625;51.762;14.320;2022-12-24T16:24:26;8.60;99.90
7167;DHT22;3625;51.762;14.320;2022-12-24T16:26:57;8.60;99.90
7167;DHT22;3625;51.762;14.320;2022-12-24T16:29:25;8.60;99.90
7167;DHT22;3625;51.762;14.320;2022-12-24T16:31:56;8.60;99.90
7167;DHT22;3625;51.762;14.320;2022-12-24T16:34:31;8.60;99.90
7167;DHT22;3625;51.762;14.320;2022-12-24T16:37:02;8.60;99.90
7167;DHT22;3625;51.762;14.320;2022-12-24T16:39:32;8.70;99.90
7167;DHT22;3625;51.762;14.320;2022-12-24T16:42:06;8.70;99.90
7167;DHT22;3625;51.762;14.320;2022-12-24T16:44:52;8.70;99.90
7167;DHT22;3625;51.762;14.320;2022-12-24T16:47:25;8.50;99.90
7167;DHT22;3625;51.762;14.320;2022-12-24T16:50:01;8.40;99.90
7167;DHT22;3625;51.762;14.320;2022-12-24T16:52:33;8.30;99.90
7167;DHT22;3625;51.762;14.320;2022-12-24T16:57:32;8.20;99.90
7167;DHT22;3625;51.762;14.320;2022-12-24T17:00:02;8.20;99.90
7167;DHT22;3625;51.762;14.320;2022-12-24T17:10:10;8.10;99.90
7167;DHT22;3625;51.762;14.320;2022-12-24T17:12:41;8.10;99.90
7167;DHT22;3625;51.762;14.320;2022-12-24T17:15:10;8.00;99.90
7167;DHT22;3625;51.762;14.320;2022-12-24T17:17:39;7.90;99.90
7167;DHT22;3625;51.762;14.320;2022-12-24T17:20:10;7.80;99.90
7167;DHT22;3625;51.762;14.320;2022-12-24T17:22:40;7.80;99.90
7167;DHT22;3625;51.762;14.320;2022-12-24T17:25:11;7.90;99.90
7167;DHT22;3625;51.762;14.320;2022-12-24T17:27:41;7.90;99.90
7167;DHT22;3625;51.762;14.320;2022-12-24T17:30:11;8.00;99.90
7167;DHT22;3625;51.762;14.320;2022-12-24T17:35:10;8.10;99.90
7167;DHT22;3625;51.762;14.320;2022-12-24T17:37:46;8.10;99.90
7167;DHT22;3625;51.762;14.320;2022-12-24T17:55:10;8.30;99.90
7167;DHT22;3625;51.762;14.320;2022-12-24T18:00:13;7.80;99.90
7167;DHT22;3625;51.762;14.320;2022-12-24T18:05:15;8.30;99.90
7167;DHT22;3625;51.762;14.320;2022-12-24T18:10:14;8.40;99.90
7167;DHT22;3625;51.762;14.320;2022-12-24T18:15:12;8.40;99.90
7167;DHT22;3625;51.762;14.320;2022-12-24T18:17:49;8.40;99.90
7167;DHT22;3625;51.762;14.320;2022-12-24T18:20:20;8.40;99.90
7167;DHT22;3625;51.762;14.320;2022-12-24T18:25:20;8.50;99.90
7167;DHT22;3625;51.762;14.320;2022-12-24T18:37:52;8.40;99.90
7167;DHT22;3625;51.762;14.320;2022-12-24T18:40:22;8.40;99.90
7167;DHT22;3625;51.762;14.320;2022-12-24T18:52:49;8.40;99.90
7167;DHT22;3625;51.762;14.320;2022-12-24T18:57:49;8.50;99.90
7167;DHT22;3625;51.762;14.320;2022-12-24T19:00:19;8.20;99.90
7167;DHT22;3625;51.762;14.320;2022-12-24T19:02:49;8.50;99.90
7167;DHT22;3625;51.762;14.320;2022-12-24T19:07:48;8.50;99.90
7167;DHT22;3625;51.762;14.320;2022-12-24T19:12:50;8.50;99.90
7167;DHT22;3625;51.762;14.320;2022-12-24T19:15:18;8.40;99.90
7167;DHT22;3625;51.762;14.320;2022-12-24T19:25:18;8.40;99.90
7167;DHT22;3625;51.762;14.320;2022-12-24T19:45:20;8.30;99.90
7167;DHT22;3625;51.762;14.320;2022-12-24T19:47:50;8.30;99.90
7167;DHT22;3625;51.762;14.320;2022-12-24T19:50:19;8.30;99.90
7167;DHT22;3625;51.762;14.320;2022-12-24T19:52:48;8.30;99.90
7167;DHT22;3625;51.762;14.320;2022-12-24T20:00:15;8.30;99.90
7167;DHT22;3625;51.762;14.320;2022-12-24T20:02:46;8.30;99.90
7167;DHT22;3625;51.762;14.320;2022-12-24T20:10:13;8.30;99.90
7167;DHT22;3625;51.762;14.320;2022-12-24T20:12:42;8.30;99.90
7167;DHT22;3625;51.762;14.320;2022-12-24T20:15:12;8.20;99.90
7167;DHT22;3625;51.762;14.320;2022-12-24T20:17:41;8.20;99.90
7167;DHT22;3625;51.762;14.320;2022-12-24T20:20:11;8.20;99.90
7167;DHT22;3625;51.762;14.320;2022-12-24T20:22:40;8.10;99.90
7167;DHT22;3625;51.762;14.320;2022-12-24T20:25:09;8.10;99.90
7167;DHT22;3625;51.762;14.320;2022-12-24T20:27:37;7.90;99.90
7167;DHT22;3625;51.762;14.320;2022-12-24T20:30:07;7.90;99.90
7167;DHT22;3625;51.762;14.320;2022-12-24T20:32:39;7.80;99.90
7167;DHT22;3625;51.762;14.320;2022-12-24T20:35:08;8.30;99.90
7167;DHT22;3625;51.762;14.320;2022-12-24T20:37:38;7.80;99.90
7167;DHT22;3625;51.762;14.320;2022-12-24T20:40:12;7.80;99.90
7167;DHT22;3625;51.762;14.320;2022-12-24T20:42:41;7.80;99.90
7167;DHT22;3625;51.762;14.320;2022-12-24T20:45:11;7.80;99.90
7167;DHT22;3625;51.762;14.320;2022-12-24T20:50:11;7.70;99.90
7167;DHT22;3625;51.762;14.320;2022-12-24T20:52:41;7.90;99.90
7167;DHT22;3625;51.762;14.320;2022-12-24T20:55:10;7.60;99.90
7167;DHT22;3625;51.762;14.320;2022-12-24T20:57:40;7.60;99.90
7167;DHT22;3625;51.762;14.320;2022-12-24T21:00:10;7.50;99.90
7167;DHT22;3625;51.762;14.320;2022-12-24T21:07:42;7.50;99.90
7167;DHT22;3625;51.762;14.320;2022-12-24T21:10:12;7.50;99.90
7167;DHT22;3625;51.762;14.320;2022-12-24T21:12:43;7.40;99.90
7167;DHT22;3625;51.762;14.320;2022-12-24T21:15:19;7.40;99.90
7167;DHT22;3625;51.762;14.320;2022-12-24T21:17:49;7.40;99.90
7167;DHT22;3625;51.762;14.320;2022-12-24T21:20:19;9.00;99.90
7167;DHT22;3625;51.762;14.320;2022-12-24T21:22:57;7.80;99.90
7167;DHT22;3625;51.762;14.320;2022-12-24T21:25:27;7.00;99.90
7167;DHT22;3625;51.762;14.320;2022-12-24T21:27:55;7.50;99.90
7167;DHT22;3625;51.762;14.320;2022-12-24T21:30:24;7.50;99.90
7167;DHT22;3625;51.762;14.320;2022-12-24T21:32:55;7.60;99.90
7167;DHT22;3625;51.762;14.320;2022-12-24T21:37:53;7.60;99.90
7167;DHT22;3625;51.762;14.320;2022-12-24T21:40:24;7.60;99.90
7167;DHT22;3625;51.762;14.320;2022-12-24T21:42:52;7.60;99.90
7167;DHT22;3625;51.762;14.320;2022-12-24T21:45:20;7.60;99.90
7167;DHT22;3625;51.762;14.320;2022-12-24T21:50:18;7.60;99.90
7167;DHT22;3625;51.762;14.320;2022-12-24T21:55:52;7.50;99.90
7167;DHT22;3625;51.762;14.320;2022-12-24T21:58:20;7.90;99.90
7167;DHT22;3625;51.762;14.320;2022-12-24T22:00:48;7.20;99.90
7167;DHT22;3625;51.762;14.320;2022-12-24T22:03:16;7.20;99.90
7167;DHT22;3625;51.762;14.320;2022-12-24T22:05:45;7.00;99.90
7167;DHT22;3625;51.762;14.320;2022-12-24T22:08:14;6.90;99.90
7167;DHT22;3625;51.762;14.320;2022-12-24T22:11:03;6.70;99.90
7167;DHT22;3625;51.762;14.320;2022-12-24T22:13:52;6.60;99.90
7167;DHT22;3625;51.762;14.320;2022-12-24T22:16:20;6.40;99.90
7167;DHT22;3625;51.762;14.320;2022-12-24T22:18:50;6.40;99.90
7167;DHT22;3625;51.762;14.320;2022-12-24T22:23:48;6.10;99.90
7167;DHT22;3625;51.762;14.320;2022-12-24T22:26:18;6.00;99.90
7167;DHT22;3625;51.762;14.320;2022-12-24T22:28:46;6.10;99.90
7167;DHT22;3625;51.762;14.320;2022-12-24T22:31:16;5.90;99.90
7167;DHT22;3625;51.762;14.320;2022-12-24T22:33:46;5.80;99.90
7167;DHT22;3625;51.762;14.320;2022-12-24T22:36:15;5.90;99.90
7167;DHT22;3625;51.762;14.320;2022-12-24T22:38:44;6.00;99.90
7167;DHT22;3625;51.762;14.320;2022-12-24T22:43:45;6.10;99.90
7167;DHT22;3625;51.762;14.320;2022-12-24T22:46:16;5.80;99.90
7167;DHT22;3625;51.762;14.320;2022-12-24T22:48:49;5.70;99.90
7167;DHT22;3625;51.762;14.320;2022-12-24T22:51:21;5.70;99.90
7167;DHT22;3625;51.762;14.320;2022-12-24T22:56:21;5.60;99.90
7167;DHT22;3625;51.762;14.320;2022-12-24T22:58:54;5.50;99.90
7167;DHT22;3625;51.762;14.320;2022-12-24T23:01:32;5.80;99.90
7167;DHT22;3625;51.762;14.320;2022-12-24T23:06:32;5.20;99.90
7167;DHT22;3625;51.762;14.320;2022-12-24T23:09:03;5.20;99.90